createdAt,value
2023-05-09T00:01:58.675Z,73.90
2023-05-09T00:06:58.550Z,73.90
2023-05-09T00:11:57.009Z,74.40
2023-05-09T00:16:55.543Z,73.80
2023-05-09T00:21:54.047Z,74.20
2023-05-09T00:26:53.883Z,75.10
2023-05-09T00:31:52.431Z,75.10
2023-05-09T00:36:51.272Z,75.00
2023-05-09T00:41:49.534Z,74.70
2023-05-09T00:46:49.419Z,74.00
2023-05-09T00:51:48.865Z,74.20
2023-05-09T00:56:47.208Z,75.20
2023-05-09T01:01:46.231Z,76.30
2023-05-09T01:06:53.945Z,76.30
2023-05-09T01:11:58.908Z,75.40
2023-05-09T01:17:04.586Z,76.10
2023-05-09T01:22:09.095Z,76.60
2023-05-09T01:27:30.374Z,76.60
2023-05-09T01:32:31.311Z,76.80
2023-05-09T01:37:32.785Z,75.90
2023-05-09T01:42:39.710Z,76.30
2023-05-09T01:47:41.457Z,76.60
2023-05-09T01:52:41.504Z,76.70
2023-05-09T01:57:40.459Z,76.30
2023-05-09T02:02:41.367Z,76.90
2023-05-09T02:07:42.675Z,77.20
2023-05-09T02:12:41.714Z,77.30
2023-05-09T02:17:42.620Z,76.50
2023-05-09T02:22:42.728Z,77.20
2023-05-09T02:27:42.017Z,78.20
2023-05-09T02:32:43.895Z,78.00
2023-05-09T02:37:43.058Z,76.80
2023-05-09T02:42:41.584Z,76.40
2023-05-09T02:47:41.571Z,78.20
2023-05-09T02:52:40.228Z,77.40
2023-05-09T02:57:38.801Z,78.60
2023-05-09T03:02:37.234Z,78.40
2023-05-09T03:07:39.336Z,79.00
2023-05-09T03:12:38.941Z,79.10
2023-05-09T03:17:37.941Z,78.70
2023-05-09T03:22:38.256Z,79.10
2023-05-09T03:27:39.984Z,79.10
2023-05-09T03:32:42.460Z,79.70
2023-05-09T03:37:42.016Z,80.00
2023-05-09T03:42:41.308Z,79.50
2023-05-09T03:47:41.078Z,79.40
2023-05-09T03:52:39.360Z,79.40
2023-05-09T03:57:40.013Z,79.10
2023-05-09T04:02:38.821Z,80.00
2023-05-09T04:07:37.761Z,80.00
2023-05-09T04:12:36.426Z,80.20
2023-05-09T04:17:37.564Z,80.90
2023-05-09T04:22:36.590Z,81.20
2023-05-09T04:27:35.111Z,81.20
2023-05-09T04:32:36.065Z,81.40
2023-05-09T04:37:36.350Z,81.90
2023-05-09T04:42:36.255Z,81.80
2023-05-09T04:47:35.020Z,82.30
2023-05-09T04:52:33.265Z,82.00
2023-05-09T04:57:33.460Z,81.60
2023-05-09T05:02:33.375Z,82.90
2023-05-09T05:07:32.014Z,83.10
2023-05-09T05:12:32.850Z,83.10
2023-05-09T05:17:32.907Z,83.30
2023-05-09T05:22:33.411Z,83.90
2023-05-09T05:27:33.368Z,83.70
2023-05-09T05:32:32.345Z,83.50
2023-05-09T05:37:30.652Z,83.30
2023-05-09T05:42:29.603Z,83.60
2023-05-09T05:47:31.665Z,83.30
2023-05-09T05:52:31.109Z,83.40
2023-05-09T05:57:32.374Z,83.80
2023-05-09T06:02:32.411Z,83.20
2023-05-09T06:07:31.817Z,82.70
2023-05-09T06:12:30.383Z,83.30
2023-05-09T06:17:29.517Z,83.30
2023-05-09T06:22:29.504Z,84.70
2023-05-09T06:27:27.625Z,83.20
2023-05-09T06:32:26.589Z,83.70
2023-05-09T06:37:25.069Z,83.70
2023-05-09T06:42:24.887Z,83.00
2023-05-09T06:47:23.425Z,81.70
2023-05-09T06:52:22.056Z,82.70
2023-05-09T06:57:20.658Z,81.50
2023-05-09T07:02:20.458Z,82.50
2023-05-09T07:07:18.953Z,81.80
2023-05-09T07:12:17.546Z,82.00
2023-05-09T07:17:23.413Z,81.80
2023-05-09T07:22:24.312Z,81.00
2023-05-09T07:27:22.807Z,81.60
2023-05-09T07:32:21.451Z,81.60
2023-05-09T07:37:20.214Z,81.60
2023-05-09T07:42:20.095Z,81.10
2023-05-09T07:47:18.609Z,80.00
2023-05-09T07:52:17.989Z,79.80
2023-05-09T07:57:16.485Z,80.00
2023-05-09T08:02:16.418Z,78.60
2023-05-09T08:07:14.943Z,78.90
2023-05-09T08:12:13.060Z,79.00
2023-05-09T08:17:12.004Z,77.90
2023-05-09T08:22:18.168Z,77.80
2023-05-09T08:27:16.641Z,77.70
2023-05-09T08:32:15.124Z,78.00
2023-05-09T08:37:15.489Z,78.30
2023-05-09T08:42:16.267Z,77.90
2023-05-09T08:47:14.606Z,75.10
2023-05-09T08:52:16.220Z,74.30
2023-05-09T08:57:16.028Z,74.30
2023-05-09T09:02:15.894Z,75.20
2023-05-09T09:07:16.610Z,74.20
2023-05-09T09:12:17.202Z,74.90
2023-05-09T09:17:18.396Z,72.20
2023-05-09T09:22:21.097Z,73.30
2023-05-09T09:27:19.335Z,72.20
2023-05-09T09:32:18.926Z,73.30
2023-05-09T09:37:24.999Z,72.30
2023-05-09T09:42:24.156Z,72.30
2023-05-09T09:47:31.969Z,71.40
2023-05-09T09:52:32.202Z,68.50
2023-05-09T09:57:37.456Z,69.40
2023-05-09T10:02:36.093Z,70.10
2023-05-09T10:07:36.992Z,70.20
2023-05-09T10:12:38.081Z,69.50
2023-05-09T10:17:36.930Z,67.70
2023-05-09T10:22:40.606Z,68.80
2023-05-09T10:27:41.225Z,68.50
2023-05-09T10:32:47.874Z,69.10
2023-05-09T10:37:48.333Z,67.70
2023-05-09T10:42:46.548Z,66.50
2023-05-09T10:47:46.800Z,67.00
2023-05-09T10:53:11.774Z,66.50
2023-05-09T10:58:25.507Z,67.60
2023-05-09T11:03:25.132Z,65.00
2023-05-09T11:08:26.772Z,66.50
2023-05-09T11:13:27.752Z,64.60
2023-05-09T11:18:26.220Z,65.70
2023-05-09T11:23:28.308Z,65.10
2023-05-09T11:28:31.770Z,63.50
2023-05-09T11:33:30.600Z,60.50
2023-05-09T11:38:42.726Z,60.20
2023-05-09T11:43:41.833Z,61.80
2023-05-09T11:48:40.785Z,61.40
2023-05-09T11:53:47.293Z,60.90
2023-05-09T11:58:47.194Z,61.70
2023-05-09T12:03:46.327Z,62.80
2023-05-09T12:08:47.176Z,63.10
2023-05-09T12:13:50.339Z,62.60
2023-05-09T12:18:49.967Z,59.50
2023-05-09T12:23:52.379Z,61.10
2023-05-09T12:28:53.242Z,59.30
2023-05-09T12:33:51.862Z,58.00
2023-05-09T12:38:57.726Z,59.40
2023-05-09T12:43:56.422Z,59.20
2023-05-09T12:48:55.505Z,59.30
2023-05-09T12:53:54.069Z,59.20
2023-05-09T12:58:55.849Z,59.90
2023-05-09T13:03:55.031Z,60.10
2023-05-09T13:09:01.765Z,59.80
2023-05-09T13:14:03.568Z,61.00
2023-05-09T13:19:02.589Z,59.60
2023-05-09T13:24:01.105Z,59.10
2023-05-09T13:28:59.383Z,60.60
2023-05-09T13:33:59.528Z,59.60
2023-05-09T13:38:57.965Z,60.40
2023-05-09T13:43:56.389Z,58.20
2023-05-09T13:48:55.735Z,59.50
2023-05-09T13:53:55.540Z,58.00
2023-05-09T13:58:53.992Z,58.00
2023-05-09T14:03:52.960Z,57.50
2023-05-09T14:08:51.562Z,58.50
2023-05-09T14:13:52.947Z,57.30
2023-05-09T14:18:51.027Z,58.20
2023-05-09T14:23:51.691Z,57.60
2023-05-09T14:28:51.523Z,56.70
2023-05-09T14:33:50.010Z,58.80
2023-05-09T14:38:48.747Z,59.40
2023-05-09T14:43:47.432Z,56.60
2023-05-09T14:48:47.438Z,56.40
2023-05-09T14:53:47.802Z,56.60
2023-05-09T14:58:46.347Z,57.50
2023-05-09T15:03:48.461Z,56.50
2023-05-09T15:08:46.629Z,57.10
2023-05-09T15:13:45.514Z,57.50
2023-05-09T15:18:45.780Z,57.30
2023-05-09T15:23:46.031Z,55.80
2023-05-09T15:28:45.786Z,58.20
2023-05-09T15:33:44.246Z,57.40
2023-05-09T15:38:42.690Z,56.90
2023-05-09T15:43:42.509Z,56.20
2023-05-09T15:48:41.016Z,56.80
2023-05-09T15:53:39.451Z,56.50
2023-05-09T15:58:37.814Z,56.70
2023-05-09T16:03:38.045Z,56.80
2023-05-09T16:08:36.596Z,56.30
2023-05-09T16:13:36.036Z,55.70
2023-05-09T16:18:34.596Z,56.20
2023-05-09T16:23:34.598Z,57.00
2023-05-09T16:28:32.766Z,56.10
2023-05-09T16:33:31.882Z,56.70
2023-05-09T16:38:30.803Z,56.40
2023-05-09T16:43:31.068Z,56.50
2023-05-09T16:48:29.545Z,56.40
2023-05-09T16:53:28.274Z,56.90
2023-05-09T16:58:26.753Z,55.10
2023-05-09T17:03:26.602Z,56.20
2023-05-09T17:08:25.100Z,56.40
2023-05-09T17:13:23.288Z,55.50
2023-05-09T17:18:33.075Z,55.60
2023-05-09T17:23:36.243Z,55.20
2023-05-09T17:28:34.370Z,56.50
2023-05-09T17:33:32.947Z,55.70
2023-05-09T17:38:32.032Z,56.80
2023-05-09T17:43:31.984Z,56.30
2023-05-09T17:48:30.524Z,57.30
2023-05-09T17:53:28.663Z,56.80
2023-05-09T17:58:28.043Z,56.00
2023-05-09T18:03:29.189Z,57.30
2023-05-09T18:08:27.770Z,57.40
2023-05-09T18:13:26.404Z,57.50
2023-05-09T18:18:25.203Z,57.20
2023-05-09T18:23:25.578Z,57.50
2023-05-09T18:28:25.979Z,57.90
2023-05-09T18:33:24.959Z,58.00
2023-05-09T18:38:25.766Z,58.40
2023-05-09T18:43:24.922Z,57.20
2023-05-09T18:48:23.418Z,57.60
2023-05-09T18:53:21.797Z,57.20
2023-05-09T18:58:22.041Z,58.30
2023-05-09T19:03:21.228Z,57.80
2023-05-09T19:08:19.720Z,57.80
2023-05-09T19:13:18.320Z,58.40
2023-05-09T19:18:18.189Z,58.40
2023-05-09T19:23:17.028Z,59.00
2023-05-09T19:28:15.188Z,58.80
2023-05-09T19:33:14.090Z,60.10
2023-05-09T19:38:13.953Z,58.90
2023-05-09T19:43:12.417Z,59.50
2023-05-09T19:48:15.485Z,60.00
2023-05-09T19:53:15.013Z,59.80
2023-05-09T19:58:17.446Z,59.60
2023-05-09T20:03:16.447Z,62.10
2023-05-09T20:08:16.323Z,60.80
2023-05-09T20:13:15.142Z,60.50
2023-05-09T20:18:15.224Z,59.40
2023-05-09T20:23:13.716Z,60.70
2023-05-09T20:28:16.631Z,60.10
2023-05-09T20:33:15.183Z,60.70
2023-05-09T20:38:13.607Z,61.90
2023-05-09T20:43:13.445Z,61.90
2023-05-09T20:48:11.943Z,61.50
2023-05-09T20:53:10.401Z,60.40
2023-05-09T20:58:09.453Z,61.30
2023-05-09T21:03:10.263Z,61.30
2023-05-09T21:08:08.844Z,62.70
2023-05-09T21:13:07.920Z,62.10
2023-05-09T21:18:08.365Z,62.10
2023-05-09T21:23:06.879Z,61.80
2023-05-09T21:28:05.350Z,62.10
2023-05-09T21:33:04.469Z,62.20
2023-05-09T21:38:04.311Z,61.70
2023-05-09T21:43:02.780Z,61.60
2023-05-09T21:48:01.321Z,62.90
2023-05-09T21:53:00.743Z,62.90
2023-05-09T21:58:00.549Z,63.50
2023-05-09T22:03:00.022Z,63.60
2023-05-09T22:07:58.514Z,63.20
2023-05-09T22:12:57.307Z,63.50
2023-05-09T22:17:57.184Z,62.50
2023-05-09T22:22:55.660Z,63.10
2023-05-09T22:27:54.985Z,62.10
2023-05-09T22:32:53.480Z,63.60
2023-05-09T22:37:53.373Z,63.40
2023-05-09T22:42:51.855Z,64.20
2023-05-09T22:47:50.350Z,65.10
2023-05-09T22:52:48.944Z,64.10
2023-05-09T22:57:48.729Z,64.60
2023-05-09T23:02:47.286Z,64.50
2023-05-09T23:07:46.396Z,65.30
2023-05-09T23:12:44.898Z,65.80
2023-05-09T23:17:44.768Z,65.80
2023-05-09T23:22:43.216Z,66.10
2023-05-09T23:27:41.863Z,67.20
2023-05-09T23:32:40.381Z,66.60
2023-05-09T23:37:40.230Z,67.10
2023-05-09T23:42:38.693Z,66.70
2023-05-09T23:47:37.159Z,66.80
2023-05-09T23:52:35.652Z,67.20
2023-05-09T23:57:35.475Z,67.60
